sensor_id;sensor_type;location;lat;lon;timestamp;pressure;altitude;pressure_sealevel;temperature;humidity
19457;BME280;9867;48.094;11.478;2023-03-31T00:00:53;94797.00;;;8.76;100.00
19457;BME280;9867;48.094;11.478;2023-03-31T00:03:24;94790.75;;;8.85;100.00
19457;BME280;9867;48.094;11.478;2023-03-31T00:05:58;94781.66;;;8.76;100.00
19457;BME280;9867;48.094;11.478;2023-03-31T00:08:28;94786.63;;;8.84;100.00
19457;BME280;9867;48.094;11.478;2023-03-31T00:11:02;94765.38;;;8.90;100.00
19457;BME280;9867;48.094;11.478;2023-03-31T00:13:33;94771.88;;;8.99;100.00
19457;BME280;9867;48.094;11.478;2023-03-31T00:16:04;94769.13;;;9.01;100.00
19457;BME280;9867;48.094;11.478;2023-03-31T00:18:33;94764.38;;;8.98;100.00
19457;BME280;9867;48.094;11.478;2023-03-31T00:21:07;94758.50;;;8.97;100.00
19457;BME280;9867;48.094;11.478;2023-03-31T00:23:40;94753.97;;;8.93;100.00
19457;BME280;9867;48.094;11.478;2023-03-31T00:26:08;94753.97;;;8.99;100.00
19457;BME280;9867;48.094;11.478;2023-03-31T00:28:36;94753.19;;;9.12;100.00
19457;BME280;9867;48.094;11.478;2023-03-31T00:31:04;94743.56;;;9.20;100.00
19457;BME280;9867;48.094;11.478;2023-03-31T00:33:32;94751.81;;;9.29;100.00
19457;BME280;9867;48.094;11.478;2023-03-31T00:36:00;94747.66;;;9.21;100.00
19457;BME280;9867;48.094;11.478;2023-03-31T00:38:33;94747.88;;;9.27;100.00
19457;BME280;9867;48.094;11.478;2023-03-31T00:41:02;94743.16;;;9.23;100.00
19457;BME280;9867;48.094;11.478;2023-03-31T00:43:33;94726.22;;;9.22;100.00
19457;BME280;9867;48.094;11.478;2023-03-31T00:46:11;94717.75;;;9.22;100.00
19457;BME280;9867;48.094;11.478;2023-03-31T00:48:46;94702.03;;;9.18;100.00
19457;BME280;9867;48.094;11.478;2023-03-31T00:51:15;94709.69;;;9.32;100.00
19457;BME280;9867;48.094;11.478;2023-03-31T00:53:45;94710.06;;;9.35;100.00
19457;BME280;9867;48.094;11.478;2023-03-31T00:56:15;94708.50;;;9.41;100.00
19457;BME280;9867;48.094;11.478;2023-03-31T00:58:44;94706.88;;;9.46;100.00
19457;BME280;9867;48.094;11.478;2023-03-31T01:01:15;94696.09;;;9.44;100.00
19457;BME280;9867;48.094;11.478;2023-03-31T01:03:45;94710.44;;;9.45;100.00
19457;BME280;9867;48.094;11.478;2023-03-31T01:06:15;94700.03;;;9.40;100.00
19457;BME280;9867;48.094;11.478;2023-03-31T01:08:47;94685.66;;;9.33;100.00
19457;BME280;9867;48.094;11.478;2023-03-31T01:11:18;94687.22;;;9.40;100.00
19457;BME280;9867;48.094;11.478;2023-03-31T01:13:49;94681.72;;;9.43;100.00
19457;BME280;9867;48.094;11.478;2023-03-31T01:16:18;94676.00;;;9.41;100.00
19457;BME280;9867;48.094;11.478;2023-03-31T01:18:46;94678.75;;;9.40;100.00
19457;BME280;9867;48.094;11.478;2023-03-31T01:21:41;94680.13;;;9.42;100.00
19457;BME280;9867;48.094;11.478;2023-03-31T01:24:40;94656.13;;;9.43;100.00
19457;BME280;9867;48.094;11.478;2023-03-31T01:27:30;94660.25;;;9.31;100.00
19457;BME280;9867;48.094;11.478;2023-03-31T01:30:30;94638.41;;;9.22;100.00
19457;BME280;9867;48.094;11.478;2023-03-31T01:33:34;94642.34;;;9.24;100.00
19457;BME280;9867;48.094;11.478;2023-03-31T01:39:43;94636.09;;;9.01;100.00
19457;BME280;9867;48.094;11.478;2023-03-31T01:42:16;94639.63;;;9.06;100.00
19457;BME280;9867;48.094;11.478;2023-03-31T01:44:57;94636.09;;;9.14;100.00
19457;BME280;9867;48.094;11.478;2023-03-31T01:47:31;94637.84;;;9.07;100.00
19457;BME280;9867;48.094;11.478;2023-03-31T01:50:10;94631.34;;;9.17;100.00
19457;BME280;9867;48.094;11.478;2023-03-31T01:52:47;94632.16;;;9.11;100.00
19457;BME280;9867;48.094;11.478;2023-03-31T01:55:21;94635.09;;;9.02;100.00
19457;BME280;9867;48.094;11.478;2023-03-31T01:57:58;94612.47;;;8.99;100.00
19457;BME280;9867;48.094;11.478;2023-03-31T02:00:28;94602.88;;;8.94;100.00
19457;BME280;9867;48.094;11.478;2023-03-31T02:03:04;94597.94;;;8.79;100.00
19457;BME280;9867;48.094;11.478;2023-03-31T02:05:37;94604.63;;;8.80;100.00
19457;BME280;9867;48.094;11.478;2023-03-31T02:08:10;94595.97;;;8.81;100.00
19457;BME280;9867;48.094;11.478;2023-03-31T02:10:42;94588.91;;;8.83;100.00
19457;BME280;9867;48.094;11.478;2023-03-31T02:13:13;94584.97;;;8.74;100.00
19457;BME280;9867;48.094;11.478;2023-03-31T02:15:45;94585.38;;;8.71;100.00
19457;BME280;9867;48.094;11.478;2023-03-31T02:18:15;94591.66;;;8.62;100.00
19457;BME280;9867;48.094;11.478;2023-03-31T02:20:47;94578.69;;;8.57;100.00
19457;BME280;9867;48.094;11.478;2023-03-31T02:23:21;94576.91;;;8.64;100.00
19457;BME280;9867;48.094;11.478;2023-03-31T02:25:59;94580.66;;;8.62;100.00
19457;BME280;9867;48.094;11.478;2023-03-31T02:28:29;94578.69;;;8.57;100.00
19457;BME280;9867;48.094;11.478;2023-03-31T02:31:05;94575.53;;;8.55;100.00
19457;BME280;9867;48.094;11.478;2023-03-31T02:33:36;94578.28;;;8.53;100.00
19457;BME280;9867;48.094;11.478;2023-03-31T02:36:05;94580.84;;;8.53;100.00
19457;BME280;9867;48.094;11.478;2023-03-31T02:38:36;94578.69;;;8.57;100.00
19457;BME280;9867;48.094;11.478;2023-03-31T02:41:09;94582.81;;;8.71;100.00
19457;BME280;9867;48.094;11.478;2023-03-31T02:43:37;94586.13;;;8.78;100.00
19457;BME280;9867;48.094;11.478;2023-03-31T02:46:05;94582.19;;;8.96;100.00
19457;BME280;9867;48.094;11.478;2023-03-31T02:48:36;94578.03;;;9.01;100.00
19457;BME280;9867;48.094;11.478;2023-03-31T02:57:43;94572.16;;;8.94;100.00
19457;BME280;9867;48.094;11.478;2023-03-31T03:00:21;94551.31;;;8.84;100.00
19457;BME280;9867;48.094;11.478;2023-03-31T03:03:01;94550.31;;;8.92;100.00
19457;BME280;9867;48.094;11.478;2023-03-31T03:05:40;94552.50;;;8.88;100.00
19457;BME280;9867;48.094;11.478;2023-03-31T03:08:50;94560.31;;;9.13;100.00
19457;BME280;9867;48.094;11.478;2023-03-31T03:11:26;94561.47;;;9.17;100.00
19457;BME280;9867;48.094;11.478;2023-03-31T03:13:59;94563.25;;;9.16;100.00
19457;BME280;9867;48.094;11.478;2023-03-31T03:16:35;94559.94;;;9.03;100.00
19457;BME280;9867;48.094;11.478;2023-03-31T03:19:05;94561.13;;;9.00;100.00
19457;BME280;9867;48.094;11.478;2023-03-31T03:21:34;94569.56;;;9.01;100.00
19457;BME280;9867;48.094;11.478;2023-03-31T03:24:02;94584.16;;;8.94;100.00
19457;BME280;9867;48.094;11.478;2023-03-31T03:26:30;94581.56;;;9.07;100.00
19457;BME280;9867;48.094;11.478;2023-03-31T03:29:02;94579.66;;;8.82;100.00
19457;BME280;9867;48.094;11.478;2023-03-31T03:31:30;94585.16;;;8.79;100.00
19457;BME280;9867;48.094;11.478;2023-03-31T03:33:59;94587.91;;;8.78;100.00
19457;BME280;9867;48.094;11.478;2023-03-31T03:36:27;94587.13;;;8.77;100.00
19457;BME280;9867;48.094;11.478;2023-03-31T03:38:55;94584.19;;;8.67;100.00
19457;BME280;9867;48.094;11.478;2023-03-31T03:41:23;94587.34;;;8.49;100.00
19457;BME280;9867;48.094;11.478;2023-03-31T03:43:50;94577.91;;;8.37;100.00
19457;BME280;9867;48.094;11.478;2023-03-31T03:46:20;94562.97;;;8.34;100.00
19457;BME280;9867;48.094;11.478;2023-03-31T03:48:48;94553.13;;;8.50;100.00
19457;BME280;9867;48.094;11.478;2023-03-31T03:51:15;94545.66;;;8.62;100.00
19457;BME280;9867;48.094;11.478;2023-03-31T03:53:44;94546.81;;;8.53;100.00
19457;BME280;9867;48.094;11.478;2023-03-31T03:56:11;94532.28;;;8.53;100.00
19457;BME280;9867;48.094;11.478;2023-03-31T03:58:39;94511.66;;;8.42;100.00
19457;BME280;9867;48.094;11.478;2023-03-31T04:01:07;94510.09;;;8.41;100.00
19457;BME280;9867;48.094;11.478;2023-03-31T04:03:36;94503.22;;;8.41;100.00
19457;BME280;9867;48.094;11.478;2023-03-31T04:06:05;94489.03;;;8.26;100.00
19457;BME280;9867;48.094;11.478;2023-03-31T04:08:33;94477.06;;;8.19;100.00
19457;BME280;9867;48.094;11.478;2023-03-31T04:11:02;94482.34;;;8.31;100.00
19457;BME280;9867;48.094;11.478;2023-03-31T04:13:30;94479.41;;;8.41;100.00
19457;BME280;9867;48.094;11.478;2023-03-31T04:15:58;94474.28;;;8.28;100.00
19457;BME280;9867;48.094;11.478;2023-03-31T04:18:26;94467.63;;;8.27;100.00
19457;BME280;9867;48.094;11.478;2023-03-31T04:20:55;94455.59;;;8.27;100.00
19457;BME280;9867;48.094;11.478;2023-03-31T04:23:30;94453.47;;;8.24;100.00
19457;BME280;9867;48.094;11.478;2023-03-31T04:25:59;94444.22;;;8.23;100.00
19457;BME280;9867;48.094;11.478;2023-03-31T04:28:26;94424.38;;;8.12;100.00
19457;BME280;9867;48.094;11.478;2023-03-31T04:31:00;94421.06;;;7.92;100.00
19457;BME280;9867;48.094;11.478;2023-03-31T04:33:28;94410.28;;;7.70;100.00
19457;BME280;9867;48.094;11.478;2023-03-31T04:35:59;94395.53;;;7.92;100.00
19457;BME280;9867;48.094;11.478;2023-03-31T04:38:32;94390.03;;;7.95;100.00
19457;BME280;9867;48.094;11.478;2023-03-31T04:41:00;94381.34;;;8.09;100.00
19457;BME280;9867;48.094;11.478;2023-03-31T04:43:28;94385.09;;;8.06;100.00
19457;BME280;9867;48.094;11.478;2023-03-31T04:45:56;94389.44;;;7.99;100.00
19457;BME280;9867;48.094;11.478;2023-03-31T04:48:24;94395.94;;;8.02;100.00
19457;BME280;9867;48.094;11.478;2023-03-31T04:50:52;94395.34;;;8.00;100.00
19457;BME280;9867;48.094;11.478;2023-03-31T04:53:21;94381.59;;;7.94;100.00
19457;BME280;9867;48.094;11.478;2023-03-31T04:55:49;94360.19;;;8.02;100.00
19457;BME280;9867;48.094;11.478;2023-03-31T04:58:17;94329.72;;;8.00;100.00
19457;BME280;9867;48.094;11.478;2023-03-31T05:00:45;94312.00;;;8.05;100.00
19457;BME280;9867;48.094;11.478;2023-03-31T05:03:13;94297.44;;;8.12;100.00
19457;BME280;9867;48.094;11.478;2023-03-31T05:05:41;94300.59;;;8.14;100.00
19457;BME280;9867;48.094;11.478;2023-03-31T05:08:09;94296.97;;;8.80;100.00
19457;BME280;9867;48.094;11.478;2023-03-31T05:10:38;94297.22;;;9.03;100.00
19457;BME280;9867;48.094;11.478;2023-03-31T05:13:08;94305.41;;;9.18;100.00
19457;BME280;9867;48.094;11.478;2023-03-31T05:15:36;94304.31;;;9.01;100.00
19457;BME280;9867;48.094;11.478;2023-03-31T05:18:05;94297.56;;;9.13;100.00
19457;BME280;9867;48.094;11.478;2023-03-31T05:20:33;94279.03;;;9.18;100.00
19457;BME280;9867;48.094;11.478;2023-03-31T05:23:01;94259.38;;;9.12;100.00
19457;BME280;9867;48.094;11.478;2023-03-31T05:25:29;94259.97;;;9.14;100.00
19457;BME280;9867;48.094;11.478;2023-03-31T05:28:00;94265.06;;;9.14;100.00
19457;BME280;9867;48.094;11.478;2023-03-31T05:30:28;94256.66;;;9.07;100.00
19457;BME280;9867;48.094;11.478;2023-03-31T05:32:56;94255.09;;;9.06;100.00
19457;BME280;9867;48.094;11.478;2023-03-31T05:35:25;94247.03;;;9.02;100.00
19457;BME280;9867;48.094;11.478;2023-03-31T05:37:53;94247.31;;;9.19;100.00
19457;BME280;9867;48.094;11.478;2023-03-31T05:40:21;94243.41;;;9.16;100.00
19457;BME280;9867;48.094;11.478;2023-03-31T05:42:49;94230.69;;;9.28;100.00
19457;BME280;9867;48.094;11.478;2023-03-31T05:45:18;94202.06;;;9.38;100.00
19457;BME280;9867;48.094;11.478;2023-03-31T05:47:46;94187.91;;;9.35;100.00
19457;BME280;9867;48.094;11.478;2023-03-31T05:50:14;94186.28;;;9.59;100.00
19457;BME280;9867;48.094;11.478;2023-03-31T05:52:42;94182.88;;;9.47;100.00
19457;BME280;9867;48.094;11.478;2023-03-31T05:55:10;94194.47;;;9.49;100.00
19457;BME280;9867;48.094;11.478;2023-03-31T05:57:38;94191.47;;;9.71;100.00
19457;BME280;9867;48.094;11.478;2023-03-31T06:00:07;94174.84;;;9.80;100.00
19457;BME280;9867;48.094;11.478;2023-03-31T06:03:02;94158.47;;;9.81;100.00
19457;BME280;9867;48.094;11.478;2023-03-31T06:05:33;94168.84;;;9.86;100.00
19457;BME280;9867;48.094;11.478;2023-03-31T06:08:01;94174.25;;;9.78;100.00
19457;BME280;9867;48.094;11.478;2023-03-31T06:10:29;94160.09;;;9.75;100.00
19457;BME280;9867;48.094;11.478;2023-03-31T06:12:57;94141.25;;;9.70;100.00
19457;BME280;9867;48.094;11.478;2023-03-31T06:15:25;94132.31;;;9.61;100.00
19457;BME280;9867;48.094;11.478;2023-03-31T06:17:53;94118.34;;;9.75;100.00
19457;BME280;9867;48.094;11.478;2023-03-31T06:20:22;94109.19;;;9.67;100.00
19457;BME280;9867;48.094;11.478;2023-03-31T06:22:54;94121.22;;;9.97;100.00
19457;BME280;9867;48.094;11.478;2023-03-31T06:25:22;94104.69;;;9.81;100.00
19457;BME280;9867;48.094;11.478;2023-03-31T06:27:50;94095.44;;;9.80;100.00
19457;BME280;9867;48.094;11.478;2023-03-31T06:30:17;94090.09;;;9.81;100.00
19457;BME280;9867;48.094;11.478;2023-03-31T06:32:45;94089.69;;;9.96;100.00
19457;BME280;9867;48.094;11.478;2023-03-31T06:35:13;94090.59;;;10.02;100.00
19457;BME280;9867;48.094;11.478;2023-03-31T06:37:43;94088.88;;;10.14;100.00
19457;BME280;9867;48.094;11.478;2023-03-31T06:40:11;94088.13;;;10.25;100.00
19457;BME280;9867;48.094;11.478;2023-03-31T06:42:39;94077.16;;;10.18;100.00
19457;BME280;9867;48.094;11.478;2023-03-31T06:45:08;94078.53;;;10.20;100.00
19457;BME280;9867;48.094;11.478;2023-03-31T06:47:36;94070.97;;;10.25;100.00
19457;BME280;9867;48.094;11.478;2023-03-31T06:50:05;94065.88;;;10.49;100.00
19457;BME280;9867;48.094;11.478;2023-03-31T06:52:33;94074.25;;;10.56;100.00
19457;BME280;9867;48.094;11.478;2023-03-31T06:55:04;94077.00;;;10.31;100.00
19457;BME280;9867;48.094;11.478;2023-03-31T06:57:32;94094.66;;;10.39;100.00
19457;BME280;9867;48.094;11.478;2023-03-31T07:00:00;94100.88;;;10.32;100.00
19457;BME280;9867;48.094;11.478;2023-03-31T07:02:53;94091.44;;;10.14;100.00
19457;BME280;9867;48.094;11.478;2023-03-31T07:05:21;94121.44;;;9.95;100.00
19457;BME280;9867;48.094;11.478;2023-03-31T07:07:53;94153.22;;;9.21;100.00
19457;BME280;9867;48.094;11.478;2023-03-31T07:10:23;94164.31;;;8.90;100.00
19457;BME280;9867;48.094;11.478;2023-03-31T07:12:51;94164.53;;;8.88;100.00
19457;BME280;9867;48.094;11.478;2023-03-31T07:15:19;94154.19;;;8.77;100.00
19457;BME280;9867;48.094;11.478;2023-03-31T07:17:47;94167.63;;;8.72;100.00
19457;BME280;9867;48.094;11.478;2023-03-31T07:20:17;94158.50;;;8.51;100.00
19457;BME280;9867;48.094;11.478;2023-03-31T07:22:47;94210.91;;;8.36;100.00
19457;BME280;9867;48.094;11.478;2023-03-31T07:25:16;94182.47;;;8.26;100.00
19457;BME280;9867;48.094;11.478;2023-03-31T07:27:45;94198.13;;;8.29;100.00
19457;BME280;9867;48.094;11.478;2023-03-31T07:30:15;94191.88;;;8.25;100.00
19457;BME280;9867;48.094;11.478;2023-03-31T07:32:45;94181.81;;;8.30;100.00
19457;BME280;9867;48.094;11.478;2023-03-31T07:35:14;94173.56;;;8.35;100.00
19457;BME280;9867;48.094;11.478;2023-03-31T07:37:43;94144.81;;;8.46;100.00
19457;BME280;9867;48.094;11.478;2023-03-31T07:40:14;94122.31;;;8.54;100.00
19457;BME280;9867;48.094;11.478;2023-03-31T07:42:43;94106.72;;;8.63;100.00
19457;BME280;9867;48.094;11.478;2023-03-31T07:45:17;94088.09;;;8.55;100.00
19457;BME280;9867;48.094;11.478;2023-03-31T07:47:45;94103.72;;;8.47;100.00
19457;BME280;9867;48.094;11.478;2023-03-31T07:50:14;94108.44;;;8.44;100.00
19457;BME280;9867;48.094;11.478;2023-03-31T07:52:43;94104.00;;;8.33;100.00
19457;BME280;9867;48.094;11.478;2023-03-31T07:55:13;94087.94;;;8.50;100.00
19457;BME280;9867;48.094;11.478;2023-03-31T07:57:42;94060.13;;;8.61;100.00
19457;BME280;9867;48.094;11.478;2023-03-31T08:00:13;94053.63;;;8.83;100.00
19457;BME280;9867;48.094;11.478;2023-03-31T08:03:06;94039.28;;;9.00;100.00
19457;BME280;9867;48.094;11.478;2023-03-31T08:05:34;94027.41;;;9.24;100.00
19457;BME280;9867;48.094;11.478;2023-03-31T08:08:03;94030.59;;;9.38;100.00
19457;BME280;9867;48.094;11.478;2023-03-31T08:10:31;94044.41;;;9.48;100.00
19457;BME280;9867;48.094;11.478;2023-03-31T08:12:58;94030.38;;;9.39;100.00
19457;BME280;9867;48.094;11.478;2023-03-31T08:15:26;94024.78;;;9.12;100.00
19457;BME280;9867;48.094;11.478;2023-03-31T08:17:55;94056.75;;;9.03;100.00
19457;BME280;9867;48.094;11.478;2023-03-31T08:20:24;94048.94;;;8.98;100.00
19457;BME280;9867;48.094;11.478;2023-03-31T08:22:52;94043.19;;;9.03;100.00
19457;BME280;9867;48.094;11.478;2023-03-31T08:25:20;94028.00;;;9.08;100.00
19457;BME280;9867;48.094;11.478;2023-03-31T08:27:49;94040.06;;;9.19;100.00
19457;BME280;9867;48.094;11.478;2023-03-31T08:30:18;94032.41;;;9.19;100.00
19457;BME280;9867;48.094;11.478;2023-03-31T08:32:46;94039.41;;;9.23;100.00
19457;BME280;9867;48.094;11.478;2023-03-31T08:35:14;94053.97;;;9.23;100.00
19457;BME280;9867;48.094;11.478;2023-03-31T08:37:43;94071.91;;;9.41;100.00
19457;BME280;9867;48.094;11.478;2023-03-31T08:40:15;94087.59;;;9.45;100.00
19457;BME280;9867;48.094;11.478;2023-03-31T08:42:47;94070.91;;;9.24;100.00
19457;BME280;9867;48.094;11.478;2023-03-31T08:45:20;94133.03;;;9.68;100.00
19457;BME280;9867;48.094;11.478;2023-03-31T08:47:52;94130.22;;;9.87;100.00
19457;BME280;9867;48.094;11.478;2023-03-31T08:50:24;94164.50;;;10.16;100.00
19457;BME280;9867;48.094;11.478;2023-03-31T08:52:58;94161.69;;;10.24;100.00
19457;BME280;9867;48.094;11.478;2023-03-31T08:55:34;94204.34;;;10.49;100.00
19457;BME280;9867;48.094;11.478;2023-03-31T08:58:08;94226.34;;;10.68;100.00
19457;BME280;9867;48.094;11.478;2023-03-31T09:00:48;94230.13;;;10.54;100.00
19457;BME280;9867;48.094;11.478;2023-03-31T09:03:23;94201.91;;;10.54;100.00
19457;BME280;9867;48.094;11.478;2023-03-31T09:05:57;94194.72;;;10.44;100.00
19457;BME280;9867;48.094;11.478;2023-03-31T09:08:34;94178.97;;;10.29;100.00
19457;BME280;9867;48.094;11.478;2023-03-31T09:11:08;94170.19;;;10.18;100.00
19457;BME280;9867;48.094;11.478;2023-03-31T09:16:50;94129.28;;;10.42;100.00
19457;BME280;9867;48.094;11.478;2023-03-31T09:19:31;94145.41;;;10.72;100.00
19457;BME280;9867;48.094;11.478;2023-03-31T09:22:00;94142.97;;;11.01;100.00
19457;BME280;9867;48.094;11.478;2023-03-31T09:24:34;94134.94;;;10.97;100.00
19457;BME280;9867;48.094;11.478;2023-03-31T09:27:07;94108.16;;;10.93;100.00
19457;BME280;9867;48.094;11.478;2023-03-31T09:29:41;94100.88;;;11.13;100.00
19457;BME280;9867;48.094;11.478;2023-03-31T09:32:14;94117.97;;;11.31;100.00
19457;BME280;9867;48.094;11.478;2023-03-31T09:34:43;94114.13;;;11.57;100.00
19457;BME280;9867;48.094;11.478;2023-03-31T09:37:12;94101.94;;;11.92;100.00
19457;BME280;9867;48.094;11.478;2023-03-31T09:39:42;94098.97;;;12.12;100.00
19457;BME280;9867;48.094;11.478;2023-03-31T09:42:11;94073.09;;;12.02;100.00
19457;BME280;9867;48.094;11.478;2023-03-31T09:44:42;94072.47;;;12.12;100.00
19457;BME280;9867;48.094;11.478;2023-03-31T09:47:14;94088.88;;;11.94;100.00
19457;BME280;9867;48.094;11.478;2023-03-31T09:49:44;94073.91;;;11.91;100.00
19457;BME280;9867;48.094;11.478;2023-03-31T09:52:26;94077.56;;;11.78;100.00
19457;BME280;9867;48.094;11.478;2023-03-31T09:54:58;94076.25;;;11.92;100.00
19457;BME280;9867;48.094;11.478;2023-03-31T09:57:31;94075.25;;;12.10;100.00
19457;BME280;9867;48.094;11.478;2023-03-31T10:00:05;94087.69;;;12.30;100.00
19457;BME280;9867;48.094;11.478;2023-03-31T10:02:43;94098.16;;;12.12;100.00
19457;BME280;9867;48.094;11.478;2023-03-31T10:05:26;94095.34;;;11.97;100.00
19457;BME280;9867;48.094;11.478;2023-03-31T10:08:18;94082.06;;;11.88;100.00
19457;BME280;9867;48.094;11.478;2023-03-31T10:10:50;94067.81;;;11.80;100.00
19457;BME280;9867;48.094;11.478;2023-03-31T10:13:20;94074.09;;;12.01;100.00
19457;BME280;9867;48.094;11.478;2023-03-31T10:15:51;94065.06;;;12.15;100.00
19457;BME280;9867;48.094;11.478;2023-03-31T10:18:20;94050.66;;;12.31;100.00
19457;BME280;9867;48.094;11.478;2023-03-31T10:20:59;94064.00;;;12.28;100.00
19457;BME280;9867;48.094;11.478;2023-03-31T10:23:28;94040.94;;;12.33;100.00
19457;BME280;9867;48.094;11.478;2023-03-31T10:26:00;94039.44;;;12.20;100.00
19457;BME280;9867;48.094;11.478;2023-03-31T10:28:32;94027.75;;;12.29;100.00
19457;BME280;9867;48.094;11.478;2023-03-31T10:31:00;94028.56;;;12.85;100.00
19457;BME280;9867;48.094;11.478;2023-03-31T10:33:31;94022.09;;;13.21;100.00
19457;BME280;9867;48.094;11.478;2023-03-31T10:36:06;94023.53;;;13.34;100.00
19457;BME280;9867;48.094;11.478;2023-03-31T10:38:36;94015.38;;;13.42;100.00
19457;BME280;9867;48.094;11.478;2023-03-31T10:41:08;94026.63;;;13.36;100.00
19457;BME280;9867;48.094;11.478;2023-03-31T10:43:38;94030.03;;;13.63;100.00
19457;BME280;9867;48.094;11.478;2023-03-31T10:46:08;94033.53;;;13.79;100.00
19457;BME280;9867;48.094;11.478;2023-03-31T10:48:38;94007.81;;;13.84;100.00
19457;BME280;9867;48.094;11.478;2023-03-31T10:51:11;94016.09;;;13.86;100.00
19457;BME280;9867;48.094;11.478;2023-03-31T10:53:42;94018.25;;;13.73;100.00
19457;BME280;9867;48.094;11.478;2023-03-31T10:56:32;93977.56;;;13.75;100.00
19457;BME280;9867;48.094;11.478;2023-03-31T10:59:13;93985.00;;;13.71;100.00
19457;BME280;9867;48.094;11.478;2023-03-31T11:01:54;94016.25;;;13.53;100.00
19457;BME280;9867;48.094;11.478;2023-03-31T11:04:50;93990.91;;;13.18;100.00
19457;BME280;9867;48.094;11.478;2023-03-31T11:07:30;93990.63;;;12.97;100.00
19457;BME280;9867;48.094;11.478;2023-03-31T11:10:18;93984.72;;;12.80;100.00
19457;BME280;9867;48.094;11.478;2023-03-31T11:12:54;93957.19;;;12.59;100.00
19457;BME280;9867;48.094;11.478;2023-03-31T11:15:26;93991.44;;;12.43;100.00
19457;BME280;9867;48.094;11.478;2023-03-31T11:18:05;94011.31;;;12.30;100.00
19457;BME280;9867;48.094;11.478;2023-03-31T11:20:40;94056.38;;;11.88;100.00
19457;BME280;9867;48.094;11.478;2023-03-31T11:23:19;94007.63;;;10.96;100.00
19457;BME280;9867;48.094;11.478;2023-03-31T11:25:54;94057.38;;;9.95;100.00
19457;BME280;9867;48.094;11.478;2023-03-31T11:28:34;94022.00;;;9.32;100.00
19457;BME280;9867;48.094;11.478;2023-03-31T11:31:15;93977.19;;;9.11;100.00
19457;BME280;9867;48.094;11.478;2023-03-31T11:34:05;93950.63;;;8.94;100.00
19457;BME280;9867;48.094;11.478;2023-03-31T11:37:05;93943.00;;;9.06;100.00
19457;BME280;9867;48.094;11.478;2023-03-31T11:39:43;93948.97;;;9.00;100.00
19457;BME280;9867;48.094;11.478;2023-03-31T11:42:19;93964.97;;;9.13;100.00
19457;BME280;9867;48.094;11.478;2023-03-31T11:44:51;93940.25;;;9.37;100.00
19457;BME280;9867;48.094;11.478;2023-03-31T11:47:24;93937.81;;;9.54;100.00
19457;BME280;9867;48.094;11.478;2023-03-31T11:49:55;93963.56;;;9.71;100.00
19457;BME280;9867;48.094;11.478;2023-03-31T11:52:28;93946.81;;;9.86;100.00
19457;BME280;9867;48.094;11.478;2023-03-31T11:54:59;93944.91;;;10.05;100.00
19457;BME280;9867;48.094;11.478;2023-03-31T11:57:36;93935.56;;;10.11;100.00
19457;BME280;9867;48.094;11.478;2023-03-31T12:03:34;93913.38;;;10.91;100.00
19457;BME280;9867;48.094;11.478;2023-03-31T12:06:10;93909.00;;;11.32;100.00
19457;BME280;9867;48.094;11.478;2023-03-31T12:08:50;93887.66;;;11.77;100.00
19457;BME280;9867;48.094;11.478;2023-03-31T12:11:26;93914.66;;;11.96;100.00
19457;BME280;9867;48.094;11.478;2023-03-31T12:14:03;93908.44;;;12.47;100.00
19457;BME280;9867;48.094;11.478;2023-03-31T12:16:38;93901.31;;;12.76;100.00
19457;BME280;9867;48.094;11.478;2023-03-31T12:19:13;93916.69;;;12.71;100.00
19457;BME280;9867;48.094;11.478;2023-03-31T12:21:48;93905.09;;;12.30;100.00
19457;BME280;9867;48.094;11.478;2023-03-31T12:24:17;93905.53;;;12.05;100.00
19457;BME280;9867;48.094;11.478;2023-03-31T12:26:51;93919.06;;;12.17;100.00
19457;BME280;9867;48.094;11.478;2023-03-31T12:29:28;93906.50;;;12.38;100.00
19457;BME280;9867;48.094;11.478;2023-03-31T12:32:00;93910.84;;;12.37;100.00
19457;BME280;9867;48.094;11.478;2023-03-31T12:34:32;93905.59;;;12.10;100.00
19457;BME280;9867;48.094;11.478;2023-03-31T12:37:15;93914.72;;;12.18;100.00
19457;BME280;9867;48.094;11.478;2023-03-31T12:39:55;93915.09;;;12.10;100.00
19457;BME280;9867;48.094;11.478;2023-03-31T12:42:54;93906.06;;;12.07;100.00
19457;BME280;9867;48.094;11.478;2023-03-31T12:45:28;93917.44;;;12.11;100.00
19457;BME280;9867;48.094;11.478;2023-03-31T12:51:20;93937.63;;;12.19;100.00
19457;BME280;9867;48.094;11.478;2023-03-31T12:54:06;93919.94;;;12.23;100.00
19457;BME280;9867;48.094;11.478;2023-03-31T12:57:01;93899.09;;;12.41;100.00
19457;BME280;9867;48.094;11.478;2023-03-31T12:59:32;93955.84;;;12.73;100.00
19457;BME280;9867;48.094;11.478;2023-03-31T13:02:22;93964.78;;;12.32;100.00
19457;BME280;9867;48.094;11.478;2023-03-31T13:04:55;93923.75;;;12.20;100.00
19457;BME280;9867;48.094;11.478;2023-03-31T13:07:37;93980.63;;;12.07;100.00
19457;BME280;9867;48.094;11.478;2023-03-31T13:10:27;93952.72;;;11.82;100.00
19457;BME280;9867;48.094;11.478;2023-03-31T13:13:01;93947.19;;;11.74;100.00
19457;BME280;9867;48.094;11.478;2023-03-31T13:15:30;93975.56;;;11.67;100.00
19457;BME280;9867;48.094;11.478;2023-03-31T13:18:00;93962.81;;;11.55;100.00
19457;BME280;9867;48.094;11.478;2023-03-31T13:20:34;93928.66;;;10.98;100.00
19457;BME280;9867;48.094;11.478;2023-03-31T13:23:13;93858.16;;;10.89;100.00
19457;BME280;9867;48.094;11.478;2023-03-31T13:25:45;93867.06;;;10.98;100.00
19457;BME280;9867;48.094;11.478;2023-03-31T13:28:31;93868.34;;;11.12;100.00
19457;BME280;9867;48.094;11.478;2023-03-31T13:31:01;93889.28;;;11.21;100.00
19457;BME280;9867;48.094;11.478;2023-03-31T13:33:43;93888.31;;;11.10;100.00
19457;BME280;9867;48.094;11.478;2023-03-31T13:36:36;93881.00;;;11.64;100.00
19457;BME280;9867;48.094;11.478;2023-03-31T13:39:26;93860.94;;;11.78;100.00
19457;BME280;9867;48.094;11.478;2023-03-31T13:42:07;93880.91;;;12.26;100.00
19457;BME280;9867;48.094;11.478;2023-03-31T13:44:59;93882.94;;;12.89;100.00
19457;BME280;9867;48.094;11.478;2023-03-31T13:47:51;93928.00;;;12.92;100.00